createdAt,value
2022-12-16T00:01:16.353Z,100690.28
2022-12-16T00:03:47.605Z,100709.16
2022-12-16T00:06:14.158Z,100698.16
2022-12-16T00:08:40.941Z,100782.25
2022-12-16T00:11:08.274Z,100800.44
2022-12-16T00:13:36.811Z,100731.50
2022-12-16T00:16:10.217Z,100809.50
2022-12-16T00:18:37.290Z,100722.78
2022-12-16T00:21:05.053Z,100821.78
2022-12-16T00:23:32.844Z,100790.06
2022-12-16T00:26:00.372Z,100699.59
2022-12-16T00:28:27.313Z,100785.88
2022-12-16T00:30:55.463Z,100745.00
2022-12-16T00:33:24.074Z,100631.38
2022-12-16T00:35:51.146Z,100796.69
2022-12-16T00:38:18.892Z,100776.31
2022-12-16T00:40:45.536Z,100685.66
2022-12-16T00:43:12.434Z,100825.66
2022-12-16T00:45:39.322Z,100797.25
2022-12-16T00:48:06.884Z,100670.94
2022-12-16T00:50:34.148Z,100776.44
2022-12-16T00:53:00.729Z,100760.81
2022-12-16T00:55:27.247Z,100789.78
2022-12-16T00:57:53.793Z,100768.28
2022-12-16T01:00:22.400Z,100783.81
2022-12-16T01:02:50.690Z,100787.59
2022-12-16T01:05:20.620Z,100729.53
2022-12-16T01:07:48.303Z,100727.94
2022-12-16T01:10:14.890Z,100738.25
2022-12-16T01:12:41.383Z,100727.03
2022-12-16T01:15:09.096Z,100732.44
2022-12-16T01:17:35.915Z,100741.59
2022-12-16T01:20:02.975Z,100751.03
2022-12-16T01:22:32.533Z,100831.75
2022-12-16T01:24:59.943Z,100827.81
2022-12-16T01:27:27.985Z,100825.72
2022-12-16T01:29:55.415Z,100810.97
2022-12-16T01:32:22.423Z,100740.34
2022-12-16T01:34:55.193Z,100810.97
2022-12-16T01:37:23.623Z,100805.06
2022-12-16T01:39:50.735Z,100821.16
2022-12-16T01:42:20.254Z,100828.97
2022-12-16T01:44:49.482Z,100845.34
2022-12-16T01:47:25.507Z,100861.16
2022-12-16T01:49:54.994Z,100738.06
2022-12-16T01:52:31.065Z,100853.16
2022-12-16T01:55:12.928Z,100755.50
2022-12-16T01:57:49.157Z,100864.50
2022-12-16T02:00:17.022Z,100760.09
2022-12-16T02:02:46.949Z,100787.59
2022-12-16T02:05:22.684Z,100866.03
2022-12-16T02:07:54.997Z,100871.94
2022-12-16T02:10:28.420Z,100851.78
2022-12-16T02:13:18.970Z,100759.25
2022-12-16T02:15:57.138Z,100860.06
2022-12-16T02:18:38.092Z,100856.19
2022-12-16T02:21:23.793Z,100866.38
2022-12-16T02:24:06.928Z,100889.31
2022-12-16T02:27:19.576Z,100794.59
2022-12-16T02:30:04.951Z,100864.75
2022-12-16T02:32:58.669Z,100882.56
2022-12-16T02:35:38.772Z,100870.94
2022-12-16T02:38:27.358Z,100877.44
2022-12-16T02:40:57.539Z,100899.13
2022-12-16T02:43:45.985Z,100904.25
2022-12-16T02:46:13.777Z,100851.09
2022-12-16T02:48:40.475Z,100789.94
2022-12-16T02:51:06.985Z,100789.34
2022-12-16T02:53:36.885Z,100808.31
2022-12-16T02:56:12.017Z,100898.13
2022-12-16T02:59:04.913Z,100898.22
2022-12-16T03:01:40.582Z,100882.41
2022-12-16T03:04:24.888Z,100820.47
2022-12-16T03:06:54.441Z,100889.06
2022-12-16T03:09:28.731Z,100891.03
2022-12-16T03:11:56.696Z,100867.94
2022-12-16T03:14:27.355Z,100802.66
2022-12-16T03:16:53.998Z,100855.44
2022-12-16T03:19:23.068Z,100870.34
2022-12-16T03:22:17.348Z,100884.84
2022-12-16T03:24:43.972Z,100791.88
2022-12-16T03:27:19.032Z,100866.41
2022-12-16T03:29:58.589Z,100904.53
2022-12-16T03:32:36.718Z,100901.31
2022-12-16T03:35:20.111Z,100887.63
2022-12-16T03:37:49.431Z,100822.88
2022-12-16T03:40:17.057Z,100870.00
2022-12-16T03:42:44.065Z,100841.59
2022-12-16T03:45:22.838Z,100823.44
2022-12-16T03:47:51.312Z,100891.91
2022-12-16T03:50:22.563Z,100904.31
2022-12-16T03:52:49.046Z,100910.69
2022-12-16T03:55:15.605Z,100924.28
2022-12-16T03:57:42.275Z,100920.25
2022-12-16T04:00:10.300Z,100898.84
2022-12-16T04:02:39.704Z,100910.44
2022-12-16T04:05:06.720Z,100907.56
2022-12-16T04:07:33.437Z,100939.94
2022-12-16T04:10:00.088Z,100901.84
2022-12-16T04:12:45.109Z,100937.59
2022-12-16T04:15:30.550Z,100911.28
2022-12-16T04:18:15.586Z,100926.63
2022-12-16T04:21:09.920Z,100935.44
2022-12-16T04:24:06.272Z,100866.94
2022-12-16T04:26:53.030Z,100924.50
2022-12-16T04:29:19.981Z,100902.75
2022-12-16T04:31:46.695Z,100943.31
2022-12-16T04:34:25.449Z,100859.91
2022-12-16T04:37:18.706Z,100975.56
2022-12-16T04:40:04.548Z,100874.56
2022-12-16T04:42:50.427Z,100952.47
2022-12-16T04:45:36.028Z,100937.47
2022-12-16T04:48:21.227Z,100947.25
2022-12-16T04:51:06.067Z,100918.28
2022-12-16T04:53:51.236Z,100941.25
2022-12-16T04:56:36.118Z,100865.66
2022-12-16T04:59:21.045Z,100953.84
2022-12-16T05:02:06.371Z,100945.56
2022-12-16T05:04:51.313Z,100974.16
2022-12-16T05:07:38.497Z,100955.44
2022-12-16T05:10:24.979Z,100829.50
2022-12-16T05:13:12.176Z,100979.47
2022-12-16T05:15:57.941Z,100977.75
2022-12-16T05:18:43.112Z,100982.81
2022-12-16T05:21:28.310Z,100976.88
2022-12-16T05:24:13.727Z,100990.25
2022-12-16T05:26:58.839Z,100969.31
2022-12-16T05:29:44.067Z,100901.81
2022-12-16T05:32:28.916Z,100989.25
2022-12-16T05:35:13.808Z,100998.06
2022-12-16T05:37:58.853Z,100844.44
2022-12-16T05:40:44.120Z,100862.06
2022-12-16T05:43:29.524Z,101012.69
2022-12-16T05:46:14.971Z,101010.97
2022-12-16T05:49:00.409Z,101014.09
2022-12-16T05:51:45.499Z,100935.97
2022-12-16T05:54:30.709Z,100995.66
2022-12-16T05:57:15.543Z,101045.69
2022-12-16T06:00:00.559Z,100963.78
2022-12-16T06:02:45.669Z,101015.19
2022-12-16T06:05:30.667Z,101022.34
2022-12-16T06:08:16.144Z,101045.59
2022-12-16T06:11:01.716Z,100902.84
2022-12-16T06:13:46.913Z,101046.13
2022-12-16T06:16:32.023Z,101036.69
2022-12-16T06:19:17.231Z,101029.13
2022-12-16T06:22:02.613Z,100996.63
2022-12-16T06:24:47.418Z,101016.63
2022-12-16T06:27:32.438Z,101029.56
2022-12-16T06:30:17.813Z,101028.13
2022-12-16T06:33:02.871Z,100932.41
2022-12-16T06:35:49.698Z,101051.72
2022-12-16T06:38:34.622Z,101029.56
2022-12-16T06:41:19.602Z,100959.59
2022-12-16T06:44:04.732Z,101073.53
2022-12-16T06:46:49.726Z,101063.06
2022-12-16T06:49:34.621Z,101049.22
2022-12-16T06:52:19.768Z,101086.22
2022-12-16T06:55:09.362Z,101080.53
2022-12-16T06:57:54.426Z,101078.03
2022-12-16T07:00:40.604Z,101082.53
2022-12-16T07:03:25.947Z,101079.19
2022-12-16T07:06:12.207Z,101101.59
2022-12-16T07:08:57.106Z,101007.84
2022-12-16T07:11:42.042Z,100996.38
2022-12-16T07:14:27.355Z,101122.59
2022-12-16T07:17:16.886Z,101122.16
2022-12-16T07:20:02.437Z,101127.63
2022-12-16T07:22:47.169Z,101046.03
2022-12-16T07:25:31.979Z,101106.13
2022-12-16T07:28:17.247Z,101086.81
2022-12-16T07:31:02.431Z,101039.97
2022-12-16T07:33:47.585Z,101121.81
2022-12-16T07:36:32.797Z,101054.84
2022-12-16T07:39:17.853Z,101059.63
2022-12-16T07:42:03.199Z,101171.25
2022-12-16T07:44:49.936Z,101066.63
2022-12-16T07:47:35.120Z,101152.00
2022-12-16T07:50:20.163Z,101155.16
2022-12-16T07:53:12.280Z,101172.97
2022-12-16T07:55:57.569Z,101154.88
2022-12-16T07:58:43.151Z,101098.91
2022-12-16T08:01:28.365Z,101181.56
2022-12-16T08:04:13.622Z,101161.50
2022-12-16T08:06:58.842Z,101192.78
2022-12-16T08:09:44.117Z,101155.44
2022-12-16T08:12:29.390Z,101193.16
2022-12-16T08:15:14.593Z,101205.53
2022-12-16T08:18:10.600Z,101170.00
2022-12-16T08:20:55.963Z,101124.09
2022-12-16T08:23:41.622Z,101060.72
2022-12-16T08:26:26.817Z,101218.19
2022-12-16T08:29:35.062Z,101212.19
2022-12-16T08:32:17.067Z,101199.97
2022-12-16T08:35:02.214Z,101168.56
2022-12-16T08:37:47.471Z,101162.41
2022-12-16T08:40:35.834Z,101233.81
2022-12-16T08:43:21.699Z,101148.72
2022-12-16T08:46:07.070Z,101213.72
2022-12-16T08:48:52.304Z,101156.31
2022-12-16T08:51:37.535Z,101159.13
2022-12-16T08:54:22.652Z,101158.84
2022-12-16T08:57:07.778Z,101261.66
2022-12-16T08:59:52.696Z,101242.31
2022-12-16T09:02:38.077Z,101236.59
2022-12-16T09:05:23.559Z,101251.75
2022-12-16T09:08:08.521Z,101191.28
2022-12-16T09:10:53.617Z,101176.94
2022-12-16T09:13:40.406Z,101257.84
2022-12-16T09:16:26.093Z,101176.16
2022-12-16T09:19:11.306Z,101246.19
2022-12-16T09:21:56.341Z,101264.25
2022-12-16T09:24:41.489Z,101282.50
2022-12-16T09:27:26.784Z,101280.44
2022-12-16T09:30:11.856Z,101282.53
2022-12-16T09:33:01.799Z,101291.91
2022-12-16T09:35:46.874Z,101284.78
2022-12-16T09:38:31.885Z,101232.31
2022-12-16T09:41:42.757Z,101275.44
2022-12-16T09:44:45.739Z,101331.72
2022-12-16T09:47:59.314Z,101303.75
2022-12-16T09:50:46.016Z,101313.75
2022-12-16T09:53:34.587Z,101267.38
2022-12-16T09:56:23.669Z,101348.09
2022-12-16T09:59:18.903Z,101344.19
2022-12-16T10:02:04.571Z,101340.59
2022-12-16T10:04:49.745Z,101270.44
2022-12-16T10:07:41.594Z,101276.09
2022-12-16T10:10:45.869Z,101364.13
2022-12-16T10:13:55.510Z,101348.19
2022-12-16T10:16:52.085Z,101359.13
2022-12-16T10:19:54.602Z,101367.84
2022-12-16T10:22:47.025Z,101375.16
2022-12-16T10:25:39.418Z,101370.91
2022-12-16T10:29:00.782Z,101373.28
2022-12-16T10:31:46.279Z,101261.56
2022-12-16T10:34:37.023Z,101362.47
2022-12-16T10:37:23.203Z,101341.31
2022-12-16T10:40:13.335Z,101282.84
2022-12-16T10:43:40.640Z,101371.16
2022-12-16T10:46:33.548Z,101334.88
2022-12-16T10:49:18.991Z,101338.50
2022-12-16T10:52:09.309Z,101375.69
2022-12-16T10:55:05.660Z,101348.38
2022-12-16T10:57:53.868Z,101379.41
2022-12-16T11:00:57.322Z,101271.75
2022-12-16T11:03:48.141Z,101376.13
2022-12-16T11:07:05.260Z,101371.72
2022-12-16T11:09:52.558Z,101201.97
2022-12-16T11:12:46.500Z,101279.16
2022-12-16T11:15:41.809Z,101347.41
2022-12-16T11:18:33.985Z,101367.16
2022-12-16T11:21:32.588Z,101262.56
2022-12-16T11:24:37.212Z,101388.28
2022-12-16T11:27:25.275Z,101351.31
2022-12-16T11:30:15.962Z,101367.00
2022-12-16T11:33:13.825Z,101383.94
2022-12-16T11:36:03.085Z,101356.38
2022-12-16T11:39:01.005Z,101385.34
2022-12-16T11:41:52.507Z,101372.50
2022-12-16T11:44:43.716Z,101352.56
2022-12-16T11:48:04.395Z,101327.09
2022-12-16T11:50:53.572Z,101374.47
2022-12-16T11:53:53.615Z,101382.91
2022-12-16T11:56:44.922Z,101349.13
2022-12-16T11:59:42.381Z,101348.16
2022-12-16T12:02:37.165Z,101292.25
2022-12-16T12:05:22.489Z,101366.31
2022-12-16T12:08:45.382Z,101361.94
2022-12-16T12:11:41.646Z,101339.03
2022-12-16T12:14:57.678Z,101393.97
2022-12-16T12:17:52.149Z,101390.13
2022-12-16T12:20:46.548Z,101386.63
2022-12-16T12:23:39.453Z,101360.78
2022-12-16T12:26:30.989Z,101299.75
2022-12-16T12:29:51.476Z,101394.22
2022-12-16T12:32:42.814Z,101404.16
2022-12-16T12:35:51.607Z,101394.41
2022-12-16T12:39:06.403Z,101408.81
2022-12-16T12:42:10.467Z,101412.69
2022-12-16T12:45:13.699Z,101418.81
2022-12-16T12:48:11.341Z,101412.44
2022-12-16T12:51:12.223Z,101400.88
2022-12-16T12:54:00.705Z,101417.03
2022-12-16T12:56:53.088Z,101423.91
2022-12-16T12:59:47.971Z,101421.53
2022-12-16T13:02:41.839Z,101332.03
2022-12-16T13:05:35.503Z,101402.03
2022-12-16T13:08:54.368Z,101429.47
2022-12-16T13:11:43.243Z,101341.63
2022-12-16T13:14:50.155Z,101431.44
2022-12-16T13:17:41.276Z,101414.47
2022-12-16T13:20:51.635Z,101434.06
2022-12-16T13:23:46.035Z,101428.84
2022-12-16T13:26:34.309Z,101431.91
2022-12-16T13:29:45.208Z,101427.16
2022-12-16T13:32:30.334Z,101427.72
2022-12-16T13:35:20.037Z,101438.31
2022-12-16T13:38:37.534Z,101425.38
2022-12-16T13:41:45.362Z,101438.41
2022-12-16T13:45:00.247Z,101446.88
2022-12-16T13:48:08.573Z,101444.31
2022-12-16T13:50:58.794Z,101384.69
2022-12-16T13:53:51.034Z,101431.75
2022-12-16T13:56:44.838Z,101460.28
2022-12-16T13:59:38.632Z,101454.88
2022-12-16T14:02:45.745Z,101463.34
2022-12-16T14:05:38.754Z,101455.72
2022-12-16T14:08:27.685Z,101437.50
2022-12-16T14:11:20.137Z,101478.34
2022-12-16T14:14:13.308Z,101432.56
2022-12-16T14:17:09.385Z,101483.09
2022-12-16T14:20:25.237Z,101488.00
2022-12-16T14:24:03.603Z,101488.53
2022-12-16T14:26:49.613Z,101497.59
2022-12-16T14:29:53.655Z,101492.97
2022-12-16T14:32:50.834Z,101404.88
2022-12-16T14:35:38.209Z,101414.25
2022-12-16T14:39:03.364Z,101404.88
2022-12-16T14:41:48.666Z,101498.13
2022-12-16T14:44:38.713Z,101514.75
2022-12-16T14:47:24.562Z,101511.97
2022-12-16T14:50:11.748Z,101508.63
2022-12-16T14:52:58.154Z,101431.63
2022-12-16T14:55:52.244Z,101441.25
2022-12-16T14:58:43.168Z,101527.66
2022-12-16T15:01:37.056Z,101424.75
2022-12-16T15:04:27.763Z,101509.78
2022-12-16T15:07:14.224Z,101527.41
2022-12-16T15:10:05.352Z,101521.97
2022-12-16T15:12:58.107Z,101537.88
2022-12-16T15:16:05.069Z,101469.88
2022-12-16T15:18:58.057Z,101563.81
2022-12-16T15:21:43.780Z,101562.19
2022-12-16T15:24:36.267Z,101521.88
2022-12-16T15:27:40.239Z,101574.09
2022-12-16T15:30:53.643Z,101579.88
2022-12-16T15:33:40.159Z,101578.25
2022-12-16T15:36:37.307Z,101580.75
2022-12-16T15:39:48.246Z,101578.25
2022-12-16T15:42:49.116Z,101479.97
2022-12-16T15:45:45.514Z,101598.66
2022-12-16T15:48:45.783Z,101585.63
2022-12-16T15:52:03.615Z,101600.81
2022-12-16T15:54:49.383Z,101610.19
2022-12-16T15:57:54.504Z,101608.00
2022-12-16T16:00:42.500Z,101617.59
2022-12-16T16:03:49.113Z,101626.44
2022-12-16T16:06:40.923Z,101615.31
2022-12-16T16:09:40.777Z,101632.19
2022-12-16T16:12:28.435Z,101637.06
2022-12-16T16:15:13.599Z,101633.25
2022-12-16T16:17:58.804Z,101549.47
2022-12-16T16:20:43.880Z,101660.19
2022-12-16T16:23:29.521Z,101637.63
2022-12-16T16:26:14.678Z,101539.25
2022-12-16T16:28:59.770Z,101634.66
2022-12-16T16:31:44.760Z,101668.84
2022-12-16T16:34:31.389Z,101587.81
2022-12-16T16:37:17.474Z,101673.72
2022-12-16T16:40:03.282Z,101672.81
2022-12-16T16:42:49.159Z,101622.78
2022-12-16T16:45:34.298Z,101671.03
2022-12-16T16:48:29.636Z,101678.16
2022-12-16T16:51:16.229Z,101675.44
2022-12-16T16:54:01.697Z,101587.53
2022-12-16T16:56:48.999Z,101634.38
2022-12-16T16:59:34.144Z,101685.63
2022-12-16T17:02:19.332Z,101697.09
2022-12-16T17:05:04.604Z,101674.16
2022-12-16T17:07:53.857Z,101705.72
2022-12-16T17:10:39.069Z,101715.59
2022-12-16T17:13:24.296Z,101708.78
2022-12-16T17:16:09.531Z,101717.81
2022-12-16T17:18:54.720Z,101694.38
2022-12-16T17:21:40.019Z,101671.59
2022-12-16T17:24:25.096Z,101717.00
2022-12-16T17:27:10.256Z,101718.44
2022-12-16T17:29:55.429Z,101691.66
2022-12-16T17:32:40.421Z,101677.22
2022-12-16T17:35:29.226Z,101709.34
2022-12-16T17:38:14.304Z,101671.53
2022-12-16T17:40:59.504Z,101698.59
2022-12-16T17:43:44.701Z,101612.88
2022-12-16T17:46:30.323Z,101709.34
2022-12-16T17:49:17.565Z,101705.53
2022-12-16T17:52:02.716Z,101715.59
2022-12-16T17:54:48.277Z,101632.19
2022-12-16T17:57:33.476Z,101637.41
2022-12-16T18:00:18.327Z,101732.09
2022-12-16T18:03:03.715Z,101742.19
2022-12-16T18:05:48.786Z,101730.72
2022-12-16T18:08:33.794Z,101728.28
2022-12-16T18:11:19.002Z,101740.28
2022-12-16T18:14:04.318Z,101725.09
2022-12-16T18:16:49.646Z,101633.22
2022-12-16T18:19:35.225Z,101766.53
2022-12-16T18:22:21.031Z,101762.41
2022-12-16T18:25:06.164Z,101752.25
2022-12-16T18:27:51.347Z,101748.13
2022-12-16T18:30:37.612Z,101782.44
2022-12-16T18:33:22.785Z,101759.69
2022-12-16T18:36:08.050Z,101725.94
2022-12-16T18:38:53.349Z,101787.19
2022-12-16T18:41:40.849Z,101531.09
2022-12-16T18:44:30.026Z,101748.06
2022-12-16T18:47:15.446Z,101783.66
2022-12-16T18:50:00.553Z,101792.31
2022-12-16T18:52:46.090Z,101773.19
2022-12-16T18:55:31.282Z,101780.84
2022-12-16T18:58:42.532Z,101802.59
2022-12-16T19:01:24.439Z,101694.25
2022-12-16T19:04:10.730Z,101724.75
2022-12-16T19:06:56.500Z,101777.06
2022-12-16T19:09:41.759Z,101793.13
2022-12-16T19:12:27.016Z,101793.94
2022-12-16T19:15:12.297Z,101806.63
2022-12-16T19:17:57.362Z,101791.53
2022-12-16T19:20:42.524Z,101824.13
2022-12-16T19:23:27.688Z,101812.06
2022-12-16T19:26:16.610Z,101810.84
2022-12-16T19:29:01.991Z,101823.13
2022-12-16T19:31:47.608Z,101771.03
2022-12-16T19:34:32.906Z,101802.69
2022-12-16T19:37:18.038Z,101817.91
2022-12-16T19:40:02.999Z,101819.09
2022-12-16T19:42:48.229Z,101805.41
2022-12-16T19:45:33.167Z,101831.69
2022-12-16T19:48:22.496Z,101832.19
2022-12-16T19:51:07.736Z,101813.06
2022-12-16T19:53:52.949Z,101832.00
2022-12-16T19:56:41.303Z,101820.53
2022-12-16T19:59:26.590Z,101830.19
2022-12-16T20:02:12.008Z,101814.69
2022-12-16T20:04:57.521Z,101831.19
2022-12-16T20:07:42.664Z,101805.22
2022-12-16T20:10:27.916Z,101834.72
2022-12-16T20:13:16.914Z,101770.22
2022-12-16T20:16:05.478Z,101870.06
2022-12-16T20:18:50.660Z,101850.50
2022-12-16T20:21:37.077Z,101842.09
2022-12-16T20:24:22.326Z,101789.72
2022-12-16T20:27:07.822Z,101851.84
2022-12-16T20:29:53.352Z,101890.19
2022-12-16T20:32:39.580Z,101899.88
2022-12-16T20:35:50.922Z,101895.44
2022-12-16T20:38:37.840Z,101878.91
2022-12-16T20:41:23.655Z,101863.50
2022-12-16T20:44:09.326Z,101896.63
2022-12-16T20:46:56.091Z,101795.94
2022-12-16T20:49:41.771Z,101894.63
2022-12-16T20:52:26.770Z,101814.66
2022-12-16T20:55:12.036Z,101896.63
2022-12-16T20:58:00.995Z,101913.75
2022-12-16T21:00:46.969Z,101911.50
2022-12-16T21:03:36.750Z,101881.09
2022-12-16T21:06:22.856Z,101921.41
2022-12-16T21:09:07.978Z,101896.00
2022-12-16T21:11:53.243Z,101906.59
2022-12-16T21:14:42.777Z,101902.06
2022-12-16T21:17:28.184Z,101912.53
2022-12-16T21:20:13.544Z,101916.75
2022-12-16T21:22:58.752Z,101898.72
2022-12-16T21:25:43.815Z,101932.78
2022-12-16T21:28:30.701Z,101928.81
2022-12-16T21:31:19.012Z,101835.31
2022-12-16T21:34:04.029Z,101931.03
2022-12-16T21:36:49.123Z,101940.00
2022-12-16T21:39:34.333Z,101962.84
2022-12-16T21:42:21.208Z,101968.41
2022-12-16T21:45:06.310Z,101956.13
2022-12-16T21:47:51.615Z,101977.06
2022-12-16T21:50:37.011Z,101968.00
2022-12-16T21:53:22.324Z,101978.88
2022-12-16T21:56:14.314Z,101962.22
2022-12-16T21:59:01.936Z,101896.28
2022-12-16T22:01:46.792Z,101998.31
2022-12-16T22:04:32.164Z,101985.47
2022-12-16T22:07:17.663Z,101979.34
2022-12-16T22:10:02.783Z,101966.00
2022-12-16T22:12:48.118Z,101984.78
2022-12-16T22:15:33.205Z,101874.69
2022-12-16T22:18:18.537Z,101985.38
2022-12-16T22:21:13.835Z,101948.28
2022-12-16T22:23:59.125Z,101988.59
2022-12-16T22:26:44.761Z,101982.72
2022-12-16T22:29:29.936Z,102006.09
2022-12-16T22:32:15.063Z,101962.31
2022-12-16T22:35:03.610Z,101976.63
2022-12-16T22:37:48.727Z,101899.16
2022-12-16T22:40:34.362Z,102023.34
2022-12-16T22:43:40.151Z,102008.91
2022-12-16T22:46:25.707Z,101975.44
2022-12-16T22:49:10.560Z,101960.00
2022-12-16T22:51:55.517Z,102021.53
2022-12-16T22:54:41.811Z,101921.44
2022-12-16T22:57:26.936Z,101914.06
2022-12-16T23:00:12.059Z,102016.06
2022-12-16T23:02:57.141Z,101913.59
2022-12-16T23:05:43.248Z,101993.25
2022-12-16T23:08:30.557Z,102006.22
2022-12-16T23:11:17.287Z,102001.72
2022-12-16T23:14:02.519Z,101939.97
2022-12-16T23:16:48.279Z,102001.50
2022-12-16T23:19:33.506Z,102009.81
2022-12-16T23:22:18.811Z,102009.16
2022-12-16T23:25:03.991Z,102023.69
2022-12-16T23:27:48.905Z,102015.50
2022-12-16T23:30:34.143Z,102014.25
2022-12-16T23:33:20.910Z,102010.84
2022-12-16T23:36:06.327Z,101934.91
2022-12-16T23:38:54.442Z,101995.63
2022-12-16T23:41:41.575Z,102018.00
2022-12-16T23:44:26.776Z,102019.50
2022-12-16T23:47:11.879Z,102047.44
2022-12-16T23:49:57.032Z,102030.63
2022-12-16T23:52:42.187Z,102041.66
2022-12-16T23:55:27.606Z,102049.03
2022-12-16T23:58:24.042Z,102029.72
